sensor_id;sensor_type;location;lat;lon;timestamp;P1;durP1;ratioP1;P2;durP2;ratioP2
71236;SDS011;58984;51.960;5.582;2024-01-07T00:01:58;23.38;;;15.77;;
71236;SDS011;58984;51.960;5.582;2024-01-07T00:04:24;23.30;;;16.77;;
71236;SDS011;58984;51.960;5.582;2024-01-07T00:06:49;24.48;;;15.68;;
71236;SDS011;58984;51.960;5.582;2024-01-07T00:09:15;25.38;;;16.52;;
71236;SDS011;58984;51.960;5.582;2024-01-07T00:11:41;24.83;;;16.27;;
71236;SDS011;58984;51.960;5.582;2024-01-07T00:14:07;24.95;;;17.20;;
71236;SDS011;58984;51.960;5.582;2024-01-07T00:16:33;27.15;;;16.75;;
71236;SDS011;58984;51.960;5.582;2024-01-07T00:18:59;25.20;;;16.23;;
71236;SDS011;58984;51.960;5.582;2024-01-07T00:21:24;29.63;;;17.30;;
71236;SDS011;58984;51.960;5.582;2024-01-07T00:23:50;24.63;;;16.73;;
71236;SDS011;58984;51.960;5.582;2024-01-07T00:26:16;26.20;;;16.58;;
71236;SDS011;58984;51.960;5.582;2024-01-07T00:28:41;27.60;;;17.50;;
71236;SDS011;58984;51.960;5.582;2024-01-07T00:31:07;28.98;;;17.92;;
71236;SDS011;58984;51.960;5.582;2024-01-07T00:33:34;27.33;;;17.45;;
71236;SDS011;58984;51.960;5.582;2024-01-07T00:36:01;24.52;;;17.58;;
71236;SDS011;58984;51.960;5.582;2024-01-07T00:38:26;27.05;;;16.85;;
71236;SDS011;58984;51.960;5.582;2024-01-07T00:40:52;27.83;;;16.60;;
71236;SDS011;58984;51.960;5.582;2024-01-07T00:43:18;23.05;;;16.25;;
71236;SDS011;58984;51.960;5.582;2024-01-07T00:45:44;24.70;;;16.08;;
71236;SDS011;58984;51.960;5.582;2024-01-07T00:48:09;26.65;;;16.52;;
71236;SDS011;58984;51.960;5.582;2024-01-07T00:50:35;24.38;;;16.10;;
71236;SDS011;58984;51.960;5.582;2024-01-07T00:53:00;25.63;;;15.57;;
71236;SDS011;58984;51.960;5.582;2024-01-07T00:55:26;25.75;;;16.98;;
71236;SDS011;58984;51.960;5.582;2024-01-07T00:57:52;25.25;;;16.45;;
71236;SDS011;58984;51.960;5.582;2024-01-07T01:00:18;24.55;;;16.10;;
71236;SDS011;58984;51.960;5.582;2024-01-07T01:02:45;25.98;;;16.77;;
71236;SDS011;58984;51.960;5.582;2024-01-07T01:05:10;26.17;;;16.42;;
71236;SDS011;58984;51.960;5.582;2024-01-07T01:07:36;27.02;;;16.48;;
71236;SDS011;58984;51.960;5.582;2024-01-07T01:10:02;24.65;;;17.27;;
71236;SDS011;58984;51.960;5.582;2024-01-07T01:12:27;26.63;;;17.25;;
71236;SDS011;58984;51.960;5.582;2024-01-07T01:14:53;30.20;;;18.15;;
71236;SDS011;58984;51.960;5.582;2024-01-07T01:17:19;28.27;;;17.38;;
71236;SDS011;58984;51.960;5.582;2024-01-07T01:19:44;24.52;;;17.95;;
71236;SDS011;58984;51.960;5.582;2024-01-07T01:22:10;30.10;;;17.70;;
71236;SDS011;58984;51.960;5.582;2024-01-07T01:24:35;34.55;;;17.92;;
71236;SDS011;58984;51.960;5.582;2024-01-07T01:27:01;26.10;;;18.23;;
71236;SDS011;58984;51.960;5.582;2024-01-07T01:29:26;24.20;;;17.48;;
71236;SDS011;58984;51.960;5.582;2024-01-07T01:31:52;29.40;;;19.02;;
71236;SDS011;58984;51.960;5.582;2024-01-07T01:34:18;29.02;;;18.83;;
71236;SDS011;58984;51.960;5.582;2024-01-07T01:36:43;28.85;;;18.95;;
71236;SDS011;58984;51.960;5.582;2024-01-07T01:39:09;31.45;;;20.25;;
71236;SDS011;58984;51.960;5.582;2024-01-07T01:41:34;29.90;;;20.55;;
71236;SDS011;58984;51.960;5.582;2024-01-07T01:44:00;32.53;;;21.27;;
71236;SDS011;58984;51.960;5.582;2024-01-07T01:46:26;33.05;;;21.25;;
71236;SDS011;58984;51.960;5.582;2024-01-07T01:48:54;33.15;;;20.88;;
71236;SDS011;58984;51.960;5.582;2024-01-07T01:51:21;42.20;;;22.77;;
71236;SDS011;58984;51.960;5.582;2024-01-07T01:53:47;32.50;;;21.95;;
71236;SDS011;58984;51.960;5.582;2024-01-07T01:56:16;38.50;;;21.52;;
71236;SDS011;58984;51.960;5.582;2024-01-07T01:58:43;34.65;;;21.13;;
71236;SDS011;58984;51.960;5.582;2024-01-07T02:01:09;37.70;;;21.77;;
71236;SDS011;58984;51.960;5.582;2024-01-07T02:03:35;30.70;;;21.02;;
71236;SDS011;58984;51.960;5.582;2024-01-07T02:06:00;35.00;;;21.33;;
71236;SDS011;58984;51.960;5.582;2024-01-07T02:08:26;39.38;;;22.60;;
71236;SDS011;58984;51.960;5.582;2024-01-07T02:10:53;27.67;;;20.80;;
71236;SDS011;58984;51.960;5.582;2024-01-07T02:13:18;32.45;;;20.90;;
71236;SDS011;58984;51.960;5.582;2024-01-07T02:15:44;33.80;;;21.13;;
71236;SDS011;58984;51.960;5.582;2024-01-07T02:18:09;34.28;;;20.52;;
71236;SDS011;58984;51.960;5.582;2024-01-07T02:20:35;32.17;;;19.77;;
71236;SDS011;58984;51.960;5.582;2024-01-07T02:23:01;29.67;;;19.80;;
71236;SDS011;58984;51.960;5.582;2024-01-07T02:25:28;33.22;;;21.00;;
71236;SDS011;58984;51.960;5.582;2024-01-07T02:27:53;34.33;;;20.33;;
71236;SDS011;58984;51.960;5.582;2024-01-07T02:30:19;25.45;;;18.83;;
71236;SDS011;58984;51.960;5.582;2024-01-07T02:32:44;37.97;;;19.08;;
71236;SDS011;58984;51.960;5.582;2024-01-07T02:35:10;31.85;;;19.60;;
71236;SDS011;58984;51.960;5.582;2024-01-07T02:37:36;38.00;;;20.05;;
71236;SDS011;58984;51.960;5.582;2024-01-07T02:40:01;31.08;;;19.58;;
71236;SDS011;58984;51.960;5.582;2024-01-07T02:42:27;30.85;;;20.38;;
71236;SDS011;58984;51.960;5.582;2024-01-07T02:44:52;33.65;;;19.80;;
71236;SDS011;58984;51.960;5.582;2024-01-07T02:47:18;29.52;;;19.42;;
71236;SDS011;58984;51.960;5.582;2024-01-07T02:49:44;34.35;;;19.65;;
71236;SDS011;58984;51.960;5.582;2024-01-07T02:52:09;29.60;;;19.52;;
71236;SDS011;58984;51.960;5.582;2024-01-07T02:54:35;28.90;;;20.80;;
71236;SDS011;58984;51.960;5.582;2024-01-07T02:57:00;29.05;;;18.83;;
71236;SDS011;58984;51.960;5.582;2024-01-07T02:59:26;29.55;;;20.23;;
71236;SDS011;58984;51.960;5.582;2024-01-07T03:01:52;34.72;;;20.05;;
71236;SDS011;58984;51.960;5.582;2024-01-07T03:04:17;33.95;;;19.83;;
71236;SDS011;58984;51.960;5.582;2024-01-07T03:06:43;30.85;;;19.08;;
71236;SDS011;58984;51.960;5.582;2024-01-07T03:09:09;33.75;;;20.52;;
71236;SDS011;58984;51.960;5.582;2024-01-07T03:11:38;29.15;;;19.73;;
71236;SDS011;58984;51.960;5.582;2024-01-07T03:14:06;32.75;;;20.20;;
71236;SDS011;58984;51.960;5.582;2024-01-07T03:16:31;34.40;;;20.05;;
71236;SDS011;58984;51.960;5.582;2024-01-07T03:19:00;30.67;;;19.67;;
71236;SDS011;58984;51.960;5.582;2024-01-07T03:21:27;33.72;;;20.13;;
71236;SDS011;58984;51.960;5.582;2024-01-07T03:23:52;31.77;;;20.90;;
71236;SDS011;58984;51.960;5.582;2024-01-07T03:26:18;32.60;;;19.77;;
71236;SDS011;58984;51.960;5.582;2024-01-07T03:28:44;31.75;;;20.10;;
71236;SDS011;58984;51.960;5.582;2024-01-07T03:31:14;33.10;;;20.27;;
71236;SDS011;58984;51.960;5.582;2024-01-07T03:33:41;30.85;;;20.55;;
71236;SDS011;58984;51.960;5.582;2024-01-07T03:36:11;31.77;;;19.67;;
71236;SDS011;58984;51.960;5.582;2024-01-07T03:38:38;29.38;;;18.58;;
71236;SDS011;58984;51.960;5.582;2024-01-07T03:41:05;30.17;;;19.40;;
71236;SDS011;58984;51.960;5.582;2024-01-07T03:43:31;29.60;;;19.48;;
71236;SDS011;58984;51.960;5.582;2024-01-07T03:45:56;32.40;;;19.65;;
71236;SDS011;58984;51.960;5.582;2024-01-07T03:48:22;34.03;;;20.70;;
71236;SDS011;58984;51.960;5.582;2024-01-07T03:50:48;33.15;;;21.70;;
71236;SDS011;58984;51.960;5.582;2024-01-07T03:53:16;33.20;;;20.67;;
71236;SDS011;58984;51.960;5.582;2024-01-07T03:55:42;30.40;;;19.50;;
71236;SDS011;58984;51.960;5.582;2024-01-07T03:58:08;33.78;;;20.95;;
71236;SDS011;58984;51.960;5.582;2024-01-07T04:00:33;33.05;;;19.15;;
71236;SDS011;58984;51.960;5.582;2024-01-07T04:03:00;26.20;;;17.98;;
71236;SDS011;58984;51.960;5.582;2024-01-07T04:05:26;29.55;;;17.80;;
71236;SDS011;58984;51.960;5.582;2024-01-07T04:07:51;28.02;;;17.83;;
71236;SDS011;58984;51.960;5.582;2024-01-07T04:10:17;31.85;;;18.70;;
71236;SDS011;58984;51.960;5.582;2024-01-07T04:12:43;30.48;;;18.42;;
71236;SDS011;58984;51.960;5.582;2024-01-07T04:15:09;30.17;;;16.63;;
71236;SDS011;58984;51.960;5.582;2024-01-07T04:17:36;24.90;;;17.00;;
71236;SDS011;58984;51.960;5.582;2024-01-07T04:20:01;27.13;;;16.95;;
71236;SDS011;58984;51.960;5.582;2024-01-07T04:22:27;32.10;;;18.73;;
71236;SDS011;58984;51.960;5.582;2024-01-07T04:24:53;28.27;;;17.23;;
71236;SDS011;58984;51.960;5.582;2024-01-07T04:27:18;27.05;;;17.88;;
71236;SDS011;58984;51.960;5.582;2024-01-07T04:29:44;30.02;;;18.10;;
71236;SDS011;58984;51.960;5.582;2024-01-07T04:32:09;26.08;;;16.55;;
71236;SDS011;58984;51.960;5.582;2024-01-07T04:34:35;28.05;;;17.63;;
71236;SDS011;58984;51.960;5.582;2024-01-07T04:37:00;34.20;;;18.83;;
71236;SDS011;58984;51.960;5.582;2024-01-07T04:39:26;27.70;;;17.38;;
71236;SDS011;58984;51.960;5.582;2024-01-07T04:41:52;26.05;;;17.42;;
71236;SDS011;58984;51.960;5.582;2024-01-07T04:44:17;28.95;;;18.48;;
71236;SDS011;58984;51.960;5.582;2024-01-07T04:46:43;25.73;;;17.17;;
71236;SDS011;58984;51.960;5.582;2024-01-07T04:49:08;27.90;;;17.35;;
71236;SDS011;58984;51.960;5.582;2024-01-07T04:51:34;22.45;;;16.33;;
71236;SDS011;58984;51.960;5.582;2024-01-07T04:54:01;28.13;;;17.20;;
71236;SDS011;58984;51.960;5.582;2024-01-07T04:56:27;30.70;;;18.02;;
71236;SDS011;58984;51.960;5.582;2024-01-07T04:58:52;24.80;;;18.00;;
71236;SDS011;58984;51.960;5.582;2024-01-07T05:01:18;28.35;;;17.20;;
71236;SDS011;58984;51.960;5.582;2024-01-07T05:03:44;26.02;;;18.90;;
71236;SDS011;58984;51.960;5.582;2024-01-07T05:06:09;29.10;;;18.77;;
71236;SDS011;58984;51.960;5.582;2024-01-07T05:08:36;23.42;;;17.67;;
71236;SDS011;58984;51.960;5.582;2024-01-07T05:11:02;26.00;;;18.15;;
71236;SDS011;58984;51.960;5.582;2024-01-07T05:13:28;27.20;;;18.67;;
71236;SDS011;58984;51.960;5.582;2024-01-07T05:15:54;26.83;;;17.55;;
71236;SDS011;58984;51.960;5.582;2024-01-07T05:18:21;24.45;;;18.00;;
71236;SDS011;58984;51.960;5.582;2024-01-07T05:20:50;25.45;;;17.67;;
71236;SDS011;58984;51.960;5.582;2024-01-07T05:23:16;24.80;;;17.67;;
71236;SDS011;58984;51.960;5.582;2024-01-07T05:25:42;27.00;;;16.67;;
71236;SDS011;58984;51.960;5.582;2024-01-07T05:28:09;26.75;;;18.30;;
71236;SDS011;58984;51.960;5.582;2024-01-07T05:30:35;25.55;;;17.85;;
71236;SDS011;58984;51.960;5.582;2024-01-07T05:33:01;24.20;;;17.08;;
71236;SDS011;58984;51.960;5.582;2024-01-07T05:35:27;27.30;;;17.80;;
71236;SDS011;58984;51.960;5.582;2024-01-07T05:37:52;28.70;;;17.80;;
71236;SDS011;58984;51.960;5.582;2024-01-07T05:40:18;27.05;;;17.27;;
71236;SDS011;58984;51.960;5.582;2024-01-07T05:42:43;26.15;;;16.73;;
71236;SDS011;58984;51.960;5.582;2024-01-07T05:45:09;26.58;;;16.83;;
71236;SDS011;58984;51.960;5.582;2024-01-07T05:47:35;29.73;;;17.15;;
71236;SDS011;58984;51.960;5.582;2024-01-07T05:50:00;23.80;;;16.40;;
71236;SDS011;58984;51.960;5.582;2024-01-07T05:52:27;23.40;;;17.00;;
71236;SDS011;58984;51.960;5.582;2024-01-07T05:54:52;23.25;;;15.80;;
71236;SDS011;58984;51.960;5.582;2024-01-07T05:57:18;23.80;;;15.88;;
71236;SDS011;58984;51.960;5.582;2024-01-07T05:59:44;24.92;;;15.52;;
71236;SDS011;58984;51.960;5.582;2024-01-07T06:02:10;22.67;;;15.85;;
71236;SDS011;58984;51.960;5.582;2024-01-07T06:04:39;21.67;;;15.55;;
71236;SDS011;58984;51.960;5.582;2024-01-07T06:07:04;21.88;;;15.00;;
71236;SDS011;58984;51.960;5.582;2024-01-07T06:09:31;19.80;;;14.93;;
71236;SDS011;58984;51.960;5.582;2024-01-07T06:11:56;21.15;;;14.80;;
71236;SDS011;58984;51.960;5.582;2024-01-07T06:14:22;18.50;;;14.90;;
71236;SDS011;58984;51.960;5.582;2024-01-07T06:16:48;19.15;;;14.45;;
71236;SDS011;58984;51.960;5.582;2024-01-07T06:19:13;20.92;;;14.82;;
71236;SDS011;58984;51.960;5.582;2024-01-07T06:21:41;24.40;;;15.43;;
71236;SDS011;58984;51.960;5.582;2024-01-07T06:24:10;21.70;;;14.88;;
71236;SDS011;58984;51.960;5.582;2024-01-07T06:26:36;22.48;;;15.18;;
71236;SDS011;58984;51.960;5.582;2024-01-07T06:29:01;21.58;;;14.65;;
71236;SDS011;58984;51.960;5.582;2024-01-07T06:31:27;22.27;;;15.13;;
71236;SDS011;58984;51.960;5.582;2024-01-07T06:33:53;19.08;;;14.48;;
71236;SDS011;58984;51.960;5.582;2024-01-07T06:36:21;18.23;;;13.82;;
71236;SDS011;58984;51.960;5.582;2024-01-07T06:38:47;21.10;;;13.80;;
71236;SDS011;58984;51.960;5.582;2024-01-07T06:41:13;19.15;;;13.93;;
71236;SDS011;58984;51.960;5.582;2024-01-07T06:43:39;19.35;;;14.13;;
71236;SDS011;58984;51.960;5.582;2024-01-07T06:46:05;16.67;;;13.10;;
71236;SDS011;58984;51.960;5.582;2024-01-07T06:48:30;19.95;;;14.05;;
71236;SDS011;58984;51.960;5.582;2024-01-07T06:50:57;20.95;;;13.68;;
71236;SDS011;58984;51.960;5.582;2024-01-07T06:53:22;18.00;;;14.05;;
71236;SDS011;58984;51.960;5.582;2024-01-07T06:55:48;17.58;;;14.07;;
71236;SDS011;58984;51.960;5.582;2024-01-07T06:58:14;18.80;;;13.70;;
71236;SDS011;58984;51.960;5.582;2024-01-07T07:00:40;19.67;;;13.88;;
71236;SDS011;58984;51.960;5.582;2024-01-07T07:03:05;16.98;;;13.05;;
71236;SDS011;58984;51.960;5.582;2024-01-07T07:05:33;22.08;;;13.90;;
71236;SDS011;58984;51.960;5.582;2024-01-07T07:07:59;21.00;;;14.23;;
71236;SDS011;58984;51.960;5.582;2024-01-07T07:10:24;19.20;;;13.88;;
71236;SDS011;58984;51.960;5.582;2024-01-07T07:12:50;19.88;;;13.85;;
71236;SDS011;58984;51.960;5.582;2024-01-07T07:15:16;21.20;;;13.75;;
71236;SDS011;58984;51.960;5.582;2024-01-07T07:17:42;19.95;;;13.90;;
71236;SDS011;58984;51.960;5.582;2024-01-07T07:20:09;17.55;;;13.38;;
71236;SDS011;58984;51.960;5.582;2024-01-07T07:22:35;20.75;;;14.30;;
71236;SDS011;58984;51.960;5.582;2024-01-07T07:25:00;19.90;;;13.52;;
71236;SDS011;58984;51.960;5.582;2024-01-07T07:27:27;20.40;;;13.55;;
71236;SDS011;58984;51.960;5.582;2024-01-07T07:29:52;22.08;;;14.90;;
71236;SDS011;58984;51.960;5.582;2024-01-07T07:32:18;19.30;;;14.52;;
71236;SDS011;58984;51.960;5.582;2024-01-07T07:34:44;22.42;;;13.48;;
71236;SDS011;58984;51.960;5.582;2024-01-07T07:37:09;18.15;;;13.60;;
71236;SDS011;58984;51.960;5.582;2024-01-07T07:39:35;19.40;;;13.38;;
71236;SDS011;58984;51.960;5.582;2024-01-07T07:42:00;18.65;;;14.38;;
71236;SDS011;58984;51.960;5.582;2024-01-07T07:44:26;20.60;;;13.18;;
71236;SDS011;58984;51.960;5.582;2024-01-07T07:46:52;18.63;;;13.45;;
71236;SDS011;58984;51.960;5.582;2024-01-07T07:49:18;19.88;;;14.27;;
71236;SDS011;58984;51.960;5.582;2024-01-07T07:51:43;18.77;;;13.52;;
71236;SDS011;58984;51.960;5.582;2024-01-07T07:54:09;16.20;;;13.00;;
71236;SDS011;58984;51.960;5.582;2024-01-07T07:56:35;18.00;;;13.68;;
71236;SDS011;58984;51.960;5.582;2024-01-07T07:59:01;21.02;;;14.88;;
71236;SDS011;58984;51.960;5.582;2024-01-07T08:01:27;18.15;;;12.95;;
71236;SDS011;58984;51.960;5.582;2024-01-07T08:03:53;20.38;;;14.75;;
71236;SDS011;58984;51.960;5.582;2024-01-07T08:06:19;19.13;;;14.18;;
71236;SDS011;58984;51.960;5.582;2024-01-07T08:08:44;18.38;;;14.40;;
71236;SDS011;58984;51.960;5.582;2024-01-07T08:11:10;20.00;;;13.70;;
71236;SDS011;58984;51.960;5.582;2024-01-07T08:13:36;19.20;;;13.77;;
71236;SDS011;58984;51.960;5.582;2024-01-07T08:16:03;19.65;;;13.60;;
71236;SDS011;58984;51.960;5.582;2024-01-07T08:18:30;17.17;;;14.13;;
71236;SDS011;58984;51.960;5.582;2024-01-07T08:20:56;18.30;;;14.82;;
71236;SDS011;58984;51.960;5.582;2024-01-07T08:23:22;21.25;;;14.50;;
71236;SDS011;58984;51.960;5.582;2024-01-07T08:25:49;18.75;;;13.93;;
71236;SDS011;58984;51.960;5.582;2024-01-07T08:28:16;17.50;;;13.30;;
71236;SDS011;58984;51.960;5.582;2024-01-07T08:30:42;21.15;;;14.70;;
71236;SDS011;58984;51.960;5.582;2024-01-07T08:33:07;17.45;;;12.55;;
71236;SDS011;58984;51.960;5.582;2024-01-07T08:35:33;15.75;;;12.52;;
71236;SDS011;58984;51.960;5.582;2024-01-07T08:37:59;16.95;;;12.40;;
71236;SDS011;58984;51.960;5.582;2024-01-07T08:40:24;16.23;;;12.40;;
71236;SDS011;58984;51.960;5.582;2024-01-07T08:42:50;18.42;;;12.80;;
71236;SDS011;58984;51.960;5.582;2024-01-07T08:45:15;15.68;;;11.95;;
71236;SDS011;58984;51.960;5.582;2024-01-07T08:47:41;17.42;;;11.95;;
71236;SDS011;58984;51.960;5.582;2024-01-07T08:50:07;13.90;;;11.80;;
71236;SDS011;58984;51.960;5.582;2024-01-07T08:52:32;13.82;;;11.07;;
71236;SDS011;58984;51.960;5.582;2024-01-07T08:55:00;16.42;;;11.45;;
71236;SDS011;58984;51.960;5.582;2024-01-07T08:57:27;13.70;;;11.27;;
71236;SDS011;58984;51.960;5.582;2024-01-07T08:59:52;16.92;;;11.13;;
71236;SDS011;58984;51.960;5.582;2024-01-07T09:02:18;12.43;;;10.80;;
71236;SDS011;58984;51.960;5.582;2024-01-07T09:04:43;13.18;;;10.77;;
71236;SDS011;58984;51.960;5.582;2024-01-07T09:07:09;13.13;;;10.85;;
71236;SDS011;58984;51.960;5.582;2024-01-07T09:09:35;16.85;;;11.30;;
71236;SDS011;58984;51.960;5.582;2024-01-07T09:12:01;13.52;;;11.00;;
71236;SDS011;58984;51.960;5.582;2024-01-07T09:14:28;13.80;;;11.18;;
71236;SDS011;58984;51.960;5.582;2024-01-07T09:16:54;16.35;;;11.65;;
71236;SDS011;58984;51.960;5.582;2024-01-07T09:19:20;13.93;;;10.80;;
71236;SDS011;58984;51.960;5.582;2024-01-07T09:21:46;15.68;;;11.13;;
71236;SDS011;58984;51.960;5.582;2024-01-07T09:24:12;13.30;;;10.98;;
71236;SDS011;58984;51.960;5.582;2024-01-07T09:26:37;12.32;;;11.02;;
71236;SDS011;58984;51.960;5.582;2024-01-07T09:29:03;14.85;;;10.20;;
71236;SDS011;58984;51.960;5.582;2024-01-07T09:31:28;15.23;;;10.75;;
71236;SDS011;58984;51.960;5.582;2024-01-07T09:33:54;15.15;;;11.73;;
71236;SDS011;58984;51.960;5.582;2024-01-07T09:36:20;15.60;;;11.57;;
71236;SDS011;58984;51.960;5.582;2024-01-07T09:38:45;16.15;;;10.45;;
71236;SDS011;58984;51.960;5.582;2024-01-07T09:41:11;15.38;;;11.02;;
71236;SDS011;58984;51.960;5.582;2024-01-07T09:43:37;14.13;;;11.15;;
71236;SDS011;58984;51.960;5.582;2024-01-07T09:46:02;13.40;;;10.45;;
71236;SDS011;58984;51.960;5.582;2024-01-07T09:48:28;14.05;;;10.60;;
71236;SDS011;58984;51.960;5.582;2024-01-07T09:50:55;16.05;;;10.80;;
71236;SDS011;58984;51.960;5.582;2024-01-07T09:53:25;16.27;;;10.95;;
71236;SDS011;58984;51.960;5.582;2024-01-07T09:58:45;15.48;;;10.13;;
71236;SDS011;58984;51.960;5.582;2024-01-07T10:01:13;12.23;;;9.85;;
71236;SDS011;58984;51.960;5.582;2024-01-07T10:03:38;13.45;;;10.43;;
71236;SDS011;58984;51.960;5.582;2024-01-07T10:06:04;15.30;;;9.90;;
71236;SDS011;58984;51.960;5.582;2024-01-07T10:08:30;14.25;;;9.95;;
71236;SDS011;58984;51.960;5.582;2024-01-07T10:10:57;15.93;;;10.07;;
71236;SDS011;58984;51.960;5.582;2024-01-07T10:13:23;13.05;;;10.05;;
71236;SDS011;58984;51.960;5.582;2024-01-07T10:15:49;13.10;;;10.13;;
71236;SDS011;58984;51.960;5.582;2024-01-07T10:18:14;13.13;;;9.60;;
71236;SDS011;58984;51.960;5.582;2024-01-07T10:20:40;12.80;;;10.20;;
71236;SDS011;58984;51.960;5.582;2024-01-07T10:23:05;16.98;;;10.82;;
71236;SDS011;58984;51.960;5.582;2024-01-07T10:25:33;12.98;;;9.55;;
71236;SDS011;58984;51.960;5.582;2024-01-07T10:28:02;14.20;;;10.00;;
71236;SDS011;58984;51.960;5.582;2024-01-07T10:30:28;15.80;;;10.48;;
71236;SDS011;58984;51.960;5.582;2024-01-07T10:32:57;13.00;;;9.60;;
71236;SDS011;58984;51.960;5.582;2024-01-07T10:35:28;10.95;;;8.88;;
71236;SDS011;58984;51.960;5.582;2024-01-07T10:37:58;13.27;;;9.48;;
71236;SDS011;58984;51.960;5.582;2024-01-07T10:40:25;17.27;;;9.95;;
71236;SDS011;58984;51.960;5.582;2024-01-07T10:42:52;14.13;;;9.65;;
71236;SDS011;58984;51.960;5.582;2024-01-07T10:45:19;12.70;;;9.38;;
71236;SDS011;58984;51.960;5.582;2024-01-07T10:47:47;12.70;;;8.77;;
71236;SDS011;58984;51.960;5.582;2024-01-07T10:52:43;11.35;;;8.68;;
71236;SDS011;58984;51.960;5.582;2024-01-07T10:55:15;11.98;;;8.07;;
71236;SDS011;58984;51.960;5.582;2024-01-07T10:57:44;12.30;;;8.43;;
71236;SDS011;58984;51.960;5.582;2024-01-07T11:00:15;11.88;;;8.20;;
71236;SDS011;58984;51.960;5.582;2024-01-07T11:05:30;11.52;;;7.45;;
71236;SDS011;58984;51.960;5.582;2024-01-07T11:08:06;10.80;;;7.05;;
71236;SDS011;58984;51.960;5.582;2024-01-07T11:10:44;11.93;;;7.72;;
71236;SDS011;58984;51.960;5.582;2024-01-07T11:13:37;7.82;;;7.03;;
71236;SDS011;58984;51.960;5.582;2024-01-07T11:16:08;10.88;;;7.65;;
71236;SDS011;58984;51.960;5.582;2024-01-07T11:18:46;12.13;;;7.55;;
71236;SDS011;58984;51.960;5.582;2024-01-07T11:21:21;8.93;;;6.93;;
71236;SDS011;58984;51.960;5.582;2024-01-07T11:23:47;12.70;;;7.10;;
71236;SDS011;58984;51.960;5.582;2024-01-07T11:26:12;8.00;;;6.72;;
71236;SDS011;58984;51.960;5.582;2024-01-07T11:28:45;7.60;;;6.63;;
71236;SDS011;58984;51.960;5.582;2024-01-07T11:31:24;8.13;;;6.18;;
71236;SDS011;58984;51.960;5.582;2024-01-07T11:34:07;8.68;;;6.78;;
71236;SDS011;58984;51.960;5.582;2024-01-07T11:36:36;6.80;;;5.97;;
71236;SDS011;58984;51.960;5.582;2024-01-07T11:39:03;6.65;;;5.85;;
71236;SDS011;58984;51.960;5.582;2024-01-07T11:41:33;8.13;;;6.60;;
71236;SDS011;58984;51.960;5.582;2024-01-07T11:44:00;9.50;;;6.80;;
71236;SDS011;58984;51.960;5.582;2024-01-07T11:46:27;8.95;;;6.57;;
71236;SDS011;58984;51.960;5.582;2024-01-07T11:48:55;6.72;;;6.00;;
71236;SDS011;58984;51.960;5.582;2024-01-07T11:51:25;8.30;;;5.97;;
71236;SDS011;58984;51.960;5.582;2024-01-07T11:53:52;9.13;;;6.53;;
71236;SDS011;58984;51.960;5.582;2024-01-07T11:56:18;7.85;;;5.22;;
71236;SDS011;58984;51.960;5.582;2024-01-07T11:58:44;8.52;;;5.18;;
71236;SDS011;58984;51.960;5.582;2024-01-07T12:01:09;8.68;;;5.78;;
71236;SDS011;58984;51.960;5.582;2024-01-07T12:03:35;6.28;;;4.78;;
71236;SDS011;58984;51.960;5.582;2024-01-07T12:06:01;6.47;;;5.30;;
71236;SDS011;58984;51.960;5.582;2024-01-07T12:08:28;8.85;;;5.45;;
71236;SDS011;58984;51.960;5.582;2024-01-07T12:10:54;5.55;;;4.30;;
71236;SDS011;58984;51.960;5.582;2024-01-07T12:13:20;7.28;;;4.72;;
71236;SDS011;58984;51.960;5.582;2024-01-07T12:15:46;4.80;;;4.40;;
71236;SDS011;58984;51.960;5.582;2024-01-07T12:18:12;4.93;;;3.92;;
71236;SDS011;58984;51.960;5.582;2024-01-07T12:20:37;4.85;;;4.18;;
71236;SDS011;58984;51.960;5.582;2024-01-07T12:23:09;6.10;;;3.88;;
71236;SDS011;58984;51.960;5.582;2024-01-07T12:25:35;5.35;;;3.63;;
71236;SDS011;58984;51.960;5.582;2024-01-07T12:28:01;5.35;;;3.70;;
71236;SDS011;58984;51.960;5.582;2024-01-07T12:30:31;4.03;;;3.55;;
71236;SDS011;58984;51.960;5.582;2024-01-07T12:32:56;3.35;;;3.05;;
71236;SDS011;58984;51.960;5.582;2024-01-07T12:35:24;6.25;;;3.45;;
71236;SDS011;58984;51.960;5.582;2024-01-07T12:37:51;3.85;;;2.95;;
71236;SDS011;58984;51.960;5.582;2024-01-07T12:40:17;4.05;;;3.30;;
71236;SDS011;58984;51.960;5.582;2024-01-07T12:42:44;3.97;;;3.08;;
71236;SDS011;58984;51.960;5.582;2024-01-07T12:45:13;5.22;;;3.40;;
71236;SDS011;58984;51.960;5.582;2024-01-07T12:47:42;3.72;;;3.28;;
71236;SDS011;58984;51.960;5.582;2024-01-07T12:50:09;3.75;;;2.90;;
71236;SDS011;58984;51.960;5.582;2024-01-07T12:52:38;3.25;;;2.95;;
71236;SDS011;58984;51.960;5.582;2024-01-07T12:55:05;3.60;;;2.72;;
71236;SDS011;58984;51.960;5.582;2024-01-07T12:57:32;4.65;;;2.88;;
71236;SDS011;58984;51.960;5.582;2024-01-07T12:59:58;2.97;;;2.65;;
71236;SDS011;58984;51.960;5.582;2024-01-07T13:02:23;3.72;;;2.80;;
71236;SDS011;58984;51.960;5.582;2024-01-07T13:04:50;5.60;;;3.17;;
71236;SDS011;58984;51.960;5.582;2024-01-07T13:07:16;5.82;;;2.80;;
71236;SDS011;58984;51.960;5.582;2024-01-07T13:09:41;4.93;;;2.97;;
71236;SDS011;58984;51.960;5.582;2024-01-07T13:12:09;5.13;;;2.88;;
71236;SDS011;58984;51.960;5.582;2024-01-07T13:14:35;5.25;;;2.80;;
71236;SDS011;58984;51.960;5.582;2024-01-07T13:17:01;4.85;;;2.75;;
71236;SDS011;58984;51.960;5.582;2024-01-07T13:19:26;2.88;;;2.67;;
71236;SDS011;58984;51.960;5.582;2024-01-07T13:21:52;5.50;;;3.45;;
71236;SDS011;58984;51.960;5.582;2024-01-07T13:24:20;3.80;;;2.85;;
71236;SDS011;58984;51.960;5.582;2024-01-07T13:26:46;3.70;;;2.70;;
71236;SDS011;58984;51.960;5.582;2024-01-07T13:29:12;2.67;;;2.47;;
71236;SDS011;58984;51.960;5.582;2024-01-07T13:31:38;4.20;;;2.60;;
71236;SDS011;58984;51.960;5.582;2024-01-07T13:34:03;4.43;;;2.78;;
71236;SDS011;58984;51.960;5.582;2024-01-07T13:36:29;5.05;;;2.60;;
71236;SDS011;58984;51.960;5.582;2024-01-07T13:38:54;4.78;;;2.78;;
71236;SDS011;58984;51.960;5.582;2024-01-07T13:41:20;4.68;;;2.70;;
71236;SDS011;58984;51.960;5.582;2024-01-07T13:43:46;2.55;;;2.35;;
71236;SDS011;58984;51.960;5.582;2024-01-07T13:46:11;3.25;;;2.30;;
71236;SDS011;58984;51.960;5.582;2024-01-07T13:48:37;3.50;;;2.47;;
71236;SDS011;58984;51.960;5.582;2024-01-07T13:51:04;3.88;;;2.45;;
71236;SDS011;58984;51.960;5.582;2024-01-07T13:53:31;4.38;;;2.53;;
71236;SDS011;58984;51.960;5.582;2024-01-07T13:55:56;4.30;;;2.95;;
71236;SDS011;58984;51.960;5.582;2024-01-07T13:58:22;3.30;;;2.70;;
71236;SDS011;58984;51.960;5.582;2024-01-07T14:00:48;4.40;;;2.47;;
71236;SDS011;58984;51.960;5.582;2024-01-07T14:03:14;3.78;;;2.42;;
71236;SDS011;58984;51.960;5.582;2024-01-07T14:05:40;3.30;;;2.33;;
71236;SDS011;58984;51.960;5.582;2024-01-07T14:08:06;2.45;;;2.20;;
71236;SDS011;58984;51.960;5.582;2024-01-07T14:10:31;3.22;;;2.20;;
71236;SDS011;58984;51.960;5.582;2024-01-07T14:12:57;3.60;;;2.08;;
71236;SDS011;58984;51.960;5.582;2024-01-07T14:15:23;3.53;;;2.33;;
71236;SDS011;58984;51.960;5.582;2024-01-07T14:17:48;2.42;;;2.13;;
71236;SDS011;58984;51.960;5.582;2024-01-07T14:20:14;2.65;;;2.17;;
71236;SDS011;58984;51.960;5.582;2024-01-07T14:22:40;4.22;;;2.33;;
71236;SDS011;58984;51.960;5.582;2024-01-07T14:25:05;2.75;;;2.05;;
71236;SDS011;58984;51.960;5.582;2024-01-07T14:27:31;5.78;;;2.42;;
71236;SDS011;58984;51.960;5.582;2024-01-07T14:29:57;2.75;;;2.20;;
71236;SDS011;58984;51.960;5.582;2024-01-07T14:32:23;3.17;;;2.15;;